sensor_id;sensor_type;location;lat;lon;timestamp;pressure;altitude;pressure_sealevel;temperature;humidity
56600;BME280;51832;48.152;11.530;2023-01-28T00:00:57;95772.31;;;2.77;70.32
56600;BME280;51832;48.152;11.530;2023-01-28T00:06:02;95783.78;;;3.07;68.84
56600;BME280;51832;48.152;11.530;2023-01-28T00:11:04;95772.63;;;3.30;69.13
56600;BME280;51832;48.152;11.530;2023-01-28T00:16:06;95780.09;;;3.33;68.67
56600;BME280;51832;48.152;11.530;2023-01-28T00:21:11;95768.50;;;3.51;68.31
56600;BME280;51832;48.152;11.530;2023-01-28T00:26:13;95775.41;;;3.28;69.29
56600;BME280;51832;48.152;11.530;2023-01-28T00:36:21;95777.28;;;3.03;69.48
56600;BME280;51832;48.152;11.530;2023-01-28T00:41:25;95770.19;;;2.81;70.11
56600;BME280;51832;48.152;11.530;2023-01-28T00:46:25;95776.84;;;3.39;68.51
56600;BME280;51832;48.152;11.530;2023-01-28T00:51:26;95776.94;;;3.53;67.72
56600;BME280;51832;48.152;11.530;2023-01-28T00:56:27;95773.63;;;3.68;66.74
56600;BME280;51832;48.152;11.530;2023-01-28T01:01:27;95765.03;;;3.20;67.87
56600;BME280;51832;48.152;11.530;2023-01-28T01:06:31;95774.06;;;2.93;69.03
56600;BME280;51832;48.152;11.530;2023-01-28T01:11:32;95783.16;;;3.44;67.82
56600;BME280;51832;48.152;11.530;2023-01-28T01:16:32;95781.69;;;3.42;67.00
56600;BME280;51832;48.152;11.530;2023-01-28T01:21:35;95787.97;;;3.16;67.29
56600;BME280;51832;48.152;11.530;2023-01-28T01:26:35;95788.66;;;3.49;67.13
56600;BME280;51832;48.152;11.530;2023-01-28T01:31:35;95777.78;;;3.07;67.66
56600;BME280;51832;48.152;11.530;2023-01-28T01:36:36;95780.53;;;3.05;68.99
56600;BME280;51832;48.152;11.530;2023-01-28T01:41:36;95789.63;;;3.09;68.03
56600;BME280;51832;48.152;11.530;2023-01-28T01:46:40;95794.69;;;3.50;67.18
56600;BME280;51832;48.152;11.530;2023-01-28T01:51:43;95796.09;;;3.61;66.15
56600;BME280;51832;48.152;11.530;2023-01-28T01:56:47;95800.97;;;3.25;67.16
56600;BME280;51832;48.152;11.530;2023-01-28T02:01:49;95803.78;;;2.99;69.01
56600;BME280;51832;48.152;11.530;2023-01-28T02:06:50;95799.63;;;3.29;67.12
56600;BME280;51832;48.152;11.530;2023-01-28T02:11:55;95795.91;;;3.62;66.63
56600;BME280;51832;48.152;11.530;2023-01-28T02:17:00;95804.41;;;3.09;67.80
56600;BME280;51832;48.152;11.530;2023-01-28T02:32:56;95810.94;;;2.89;68.05
56600;BME280;51832;48.152;11.530;2023-01-28T02:42:59;95808.03;;;3.47;66.92
56600;BME280;51832;48.152;11.530;2023-01-28T02:47:59;95812.69;;;3.90;65.40
56600;BME280;51832;48.152;11.530;2023-01-28T02:53:26;95815.16;;;3.84;64.48
56600;BME280;51832;48.152;11.530;2023-01-28T03:04:41;95819.53;;;3.13;67.17
56600;BME280;51832;48.152;11.530;2023-01-28T03:09:45;95817.81;;;3.29;66.25
56600;BME280;51832;48.152;11.530;2023-01-28T03:14:51;95820.16;;;3.63;65.75
56600;BME280;51832;48.152;11.530;2023-01-28T03:20:12;95823.47;;;3.48;65.63
56600;BME280;51832;48.152;11.530;2023-01-28T03:25:33;95826.59;;;3.75;65.59
56600;BME280;51832;48.152;11.530;2023-01-28T03:31:02;95835.34;;;3.82;65.28
56600;BME280;51832;48.152;11.530;2023-01-28T03:36:23;95836.63;;;3.55;66.63
56600;BME280;51832;48.152;11.530;2023-01-28T03:41:43;95837.47;;;2.60;70.48
56600;BME280;51832;48.152;11.530;2023-01-28T03:46:55;95838.91;;;2.70;70.46
56600;BME280;51832;48.152;11.530;2023-01-28T03:51:55;95840.03;;;2.92;69.00
56600;BME280;51832;48.152;11.530;2023-01-28T04:02:07;95849.28;;;2.38;71.53
56600;BME280;51832;48.152;11.530;2023-01-28T04:07:12;95844.22;;;3.01;69.15
56600;BME280;51832;48.152;11.530;2023-01-28T04:12:15;95844.28;;;2.53;70.35
56600;BME280;51832;48.152;11.530;2023-01-28T04:17:17;95847.31;;;3.05;68.88
56600;BME280;51832;48.152;11.530;2023-01-28T04:22:18;95858.53;;;3.05;68.95
56600;BME280;51832;48.152;11.530;2023-01-28T04:27:18;95857.09;;;2.70;69.53
56600;BME280;51832;48.152;11.530;2023-01-28T04:32:19;95857.41;;;2.92;68.44
56600;BME280;51832;48.152;11.530;2023-01-28T04:37:19;95867.34;;;2.56;69.52
56600;BME280;51832;48.152;11.530;2023-01-28T04:42:20;95872.97;;;3.08;67.95
56600;BME280;51832;48.152;11.530;2023-01-28T04:47:20;95868.72;;;2.09;71.08
56600;BME280;51832;48.152;11.530;2023-01-28T04:52:21;95879.50;;;2.55;70.70
56600;BME280;51832;48.152;11.530;2023-01-28T04:57:21;95884.38;;;2.58;69.50
56600;BME280;51832;48.152;11.530;2023-01-28T05:02:22;95885.81;;;2.36;70.50
56600;BME280;51832;48.152;11.530;2023-01-28T05:07:22;95882.09;;;3.12;68.60
56600;BME280;51832;48.152;11.530;2023-01-28T05:12:23;95882.03;;;3.28;66.67
56600;BME280;51832;48.152;11.530;2023-01-28T05:17:23;95885.16;;;3.15;68.20
56600;BME280;51832;48.152;11.530;2023-01-28T05:22:24;95890.72;;;2.80;68.42
56600;BME280;51832;48.152;11.530;2023-01-28T05:27:25;95886.31;;;2.97;69.48
56600;BME280;51832;48.152;11.530;2023-01-28T05:32:25;95899.31;;;2.97;68.64
56600;BME280;51832;48.152;11.530;2023-01-28T05:37:26;95905.47;;;3.04;68.01
56600;BME280;51832;48.152;11.530;2023-01-28T05:42:27;95914.56;;;2.75;69.13
56600;BME280;51832;48.152;11.530;2023-01-28T05:47:27;95915.53;;;2.50;70.02
56600;BME280;51832;48.152;11.530;2023-01-28T05:52:28;95920.78;;;2.99;67.97
56600;BME280;51832;48.152;11.530;2023-01-28T05:57:29;95925.59;;;3.18;67.44
56600;BME280;51832;48.152;11.530;2023-01-28T06:02:29;95927.72;;;2.90;68.90
56600;BME280;51832;48.152;11.530;2023-01-28T06:07:30;95925.63;;;3.10;67.43
56600;BME280;51832;48.152;11.530;2023-01-28T06:12:30;95935.88;;;2.95;68.18
56600;BME280;51832;48.152;11.530;2023-01-28T06:17:31;95931.78;;;3.33;66.53
56600;BME280;51832;48.152;11.530;2023-01-28T06:22:31;95927.06;;;3.20;66.65
56600;BME280;51832;48.152;11.530;2023-01-28T06:27:33;95937.97;;;3.24;66.65
56600;BME280;51832;48.152;11.530;2023-01-28T06:32:33;95935.19;;;3.34;66.12
56600;BME280;51832;48.152;11.530;2023-01-28T06:37:34;95953.16;;;3.76;64.95
56600;BME280;51832;48.152;11.530;2023-01-28T06:42:35;95952.19;;;3.61;65.01
56600;BME280;51832;48.152;11.530;2023-01-28T06:47:38;95965.19;;;3.77;65.72
56600;BME280;51832;48.152;11.530;2023-01-28T06:52:39;95960.38;;;3.01;68.44
56600;BME280;51832;48.152;11.530;2023-01-28T06:57:40;95955.19;;;3.09;68.45
56600;BME280;51832;48.152;11.530;2023-01-28T07:02:41;95961.81;;;3.44;66.92
56600;BME280;51832;48.152;11.530;2023-01-28T07:07:41;95964.22;;;3.78;65.57
56600;BME280;51832;48.152;11.530;2023-01-28T07:12:42;95969.00;;;3.34;67.09
56600;BME280;51832;48.152;11.530;2023-01-28T07:17:43;95966.38;;;3.42;67.35
56600;BME280;51832;48.152;11.530;2023-01-28T07:22:44;95980.97;;;2.62;69.57
56600;BME280;51832;48.152;11.530;2023-01-28T07:27:51;95984.09;;;3.30;67.35
56600;BME280;51832;48.152;11.530;2023-01-28T07:32:53;95996.28;;;3.30;66.96
56600;BME280;51832;48.152;11.530;2023-01-28T07:37:56;95992.56;;;2.83;68.85
56600;BME280;51832;48.152;11.530;2023-01-28T07:42:57;95998.56;;;3.16;67.37
56600;BME280;51832;48.152;11.530;2023-01-28T07:47:59;96013.69;;;3.05;69.42
56600;BME280;51832;48.152;11.530;2023-01-28T07:53:05;96022.00;;;3.41;68.36
56600;BME280;51832;48.152;11.530;2023-01-28T07:58:07;96019.88;;;3.36;67.84
56600;BME280;51832;48.152;11.530;2023-01-28T08:03:12;96014.53;;;3.38;67.63
56600;BME280;51832;48.152;11.530;2023-01-28T08:08:16;96020.69;;;3.12;70.00
56600;BME280;51832;48.152;11.530;2023-01-28T08:13:17;96029.63;;;3.18;68.31
56600;BME280;51832;48.152;11.530;2023-01-28T08:18:18;96035.47;;;3.12;68.91
56600;BME280;51832;48.152;11.530;2023-01-28T08:23:19;96042.09;;;2.82;70.21
56600;BME280;51832;48.152;11.530;2023-01-28T08:28:20;96046.53;;;3.22;68.25
56600;BME280;51832;48.152;11.530;2023-01-28T08:33:21;96041.63;;;3.76;67.32
56600;BME280;51832;48.152;11.530;2023-01-28T08:38:21;96045.06;;;3.44;68.20
56600;BME280;51832;48.152;11.530;2023-01-28T08:43:22;96057.41;;;3.58;67.70
56600;BME280;51832;48.152;11.530;2023-01-28T08:48:23;96050.91;;;3.21;67.60
56600;BME280;51832;48.152;11.530;2023-01-28T08:53:23;96053.84;;;3.75;67.70
56600;BME280;51832;48.152;11.530;2023-01-28T08:58:24;96059.66;;;4.10;66.72
56600;BME280;51832;48.152;11.530;2023-01-28T09:03:24;96060.50;;;3.78;67.10
56600;BME280;51832;48.152;11.530;2023-01-28T09:08:24;96067.16;;;3.72;66.21
56600;BME280;51832;48.152;11.530;2023-01-28T09:13:25;96070.28;;;3.35;67.79
56600;BME280;51832;48.152;11.530;2023-01-28T09:18:26;96067.75;;;4.15;65.49
56600;BME280;51832;48.152;11.530;2023-01-28T09:23:26;96065.00;;;4.16;63.89
56600;BME280;51832;48.152;11.530;2023-01-28T09:28:27;96068.56;;;4.15;65.02
56600;BME280;51832;48.152;11.530;2023-01-28T09:33:29;96070.09;;;3.93;65.51
56600;BME280;51832;48.152;11.530;2023-01-28T09:38:30;96070.81;;;4.26;64.22
56600;BME280;51832;48.152;11.530;2023-01-28T09:43:49;96066.25;;;4.68;63.42
56600;BME280;51832;48.152;11.530;2023-01-28T09:48:53;96066.22;;;4.45;63.01
56600;BME280;51832;48.152;11.530;2023-01-28T09:53:56;96074.13;;;4.59;62.87
56600;BME280;51832;48.152;11.530;2023-01-28T09:59:11;96067.91;;;4.99;61.42
56600;BME280;51832;48.152;11.530;2023-01-28T10:19:46;96057.44;;;4.77;62.71
56600;BME280;51832;48.152;11.530;2023-01-28T10:24:56;96054.22;;;5.66;60.12
56600;BME280;51832;48.152;11.530;2023-01-28T10:29:59;96058.88;;;5.56;58.88
56600;BME280;51832;48.152;11.530;2023-01-28T10:35:00;96050.03;;;5.19;59.83
56600;BME280;51832;48.152;11.530;2023-01-28T10:40:02;96051.09;;;4.71;60.94
56600;BME280;51832;48.152;11.530;2023-01-28T10:50:24;96047.00;;;5.30;58.12
56600;BME280;51832;48.152;11.530;2023-01-28T10:55:28;96053.84;;;5.54;57.82
56600;BME280;51832;48.152;11.530;2023-01-28T11:00:35;96047.28;;;5.96;56.37
56600;BME280;51832;48.152;11.530;2023-01-28T11:05:36;96050.28;;;6.22;54.92
56600;BME280;51832;48.152;11.530;2023-01-28T11:10:37;96041.53;;;6.30;53.80
56600;BME280;51832;48.152;11.530;2023-01-28T11:15:45;96037.75;;;6.32;52.97
56600;BME280;51832;48.152;11.530;2023-01-28T11:20:55;96045.28;;;5.60;55.94
56600;BME280;51832;48.152;11.530;2023-01-28T11:31:03;96054.69;;;5.24;56.40
56600;BME280;51832;48.152;11.530;2023-01-28T11:36:05;96054.75;;;5.61;55.10
56600;BME280;51832;48.152;11.530;2023-01-28T11:41:13;96054.19;;;5.28;56.07
56600;BME280;51832;48.152;11.530;2023-01-28T11:46:22;96053.56;;;5.64;55.96
56600;BME280;51832;48.152;11.530;2023-01-28T11:51:42;96057.09;;;5.94;54.12
56600;BME280;51832;48.152;11.530;2023-01-28T12:02:19;96038.81;;;5.94;53.71
56600;BME280;51832;48.152;11.530;2023-01-28T12:44:50;96046.88;;;4.31;62.24
56600;BME280;51832;48.152;11.530;2023-01-28T12:50:17;96049.44;;;4.39;61.24
56600;BME280;51832;48.152;11.530;2023-01-28T12:55:36;96050.47;;;4.69;60.39
56600;BME280;51832;48.152;11.530;2023-01-28T13:00:41;96049.84;;;4.20;61.70
56600;BME280;51832;48.152;11.530;2023-01-28T13:05:51;96051.81;;;5.19;59.24
56600;BME280;51832;48.152;11.530;2023-01-28T13:10:54;96048.78;;;5.07;59.38
56600;BME280;51832;48.152;11.530;2023-01-28T13:15:56;96058.44;;;4.37;61.31
56600;BME280;51832;48.152;11.530;2023-01-28T13:21:00;96063.59;;;4.84;58.85
56600;BME280;51832;48.152;11.530;2023-01-28T13:26:28;96052.44;;;4.20;60.50
56600;BME280;51832;48.152;11.530;2023-01-28T13:31:37;96063.50;;;4.69;59.04
56600;BME280;51832;48.152;11.530;2023-01-28T13:36:44;96062.59;;;4.85;58.89
56600;BME280;51832;48.152;11.530;2023-01-28T13:41:47;96072.91;;;5.09;57.61
56600;BME280;51832;48.152;11.530;2023-01-28T13:46:48;96068.28;;;5.42;56.47
56600;BME280;51832;48.152;11.530;2023-01-28T14:02:39;96081.03;;;5.14;57.76
56600;BME280;51832;48.152;11.530;2023-01-28T14:18:34;96099.06;;;4.62;60.47
56600;BME280;51832;48.152;11.530;2023-01-28T14:23:38;96091.59;;;4.90;60.11
56600;BME280;51832;48.152;11.530;2023-01-28T14:28:53;96089.31;;;5.18;59.10
56600;BME280;51832;48.152;11.530;2023-01-28T14:39:13;96109.56;;;5.16;59.60
56600;BME280;51832;48.152;11.530;2023-01-28T14:49:42;96120.94;;;4.92;58.75
56600;BME280;51832;48.152;11.530;2023-01-28T14:55:07;96119.94;;;5.24;58.46
56600;BME280;51832;48.152;11.530;2023-01-28T15:00:35;96125.59;;;4.57;60.90
56600;BME280;51832;48.152;11.530;2023-01-28T15:05:35;96129.19;;;4.56;60.99
56600;BME280;51832;48.152;11.530;2023-01-28T15:10:37;96127.75;;;4.93;60.39
56600;BME280;51832;48.152;11.530;2023-01-28T15:15:39;96138.00;;;5.03;60.03
56600;BME280;51832;48.152;11.530;2023-01-28T15:20:45;96141.16;;;4.90;59.23
56600;BME280;51832;48.152;11.530;2023-01-28T15:25:46;96142.38;;;4.55;60.59
56600;BME280;51832;48.152;11.530;2023-01-28T15:30:47;96142.81;;;4.75;59.63
56600;BME280;51832;48.152;11.530;2023-01-28T15:35:49;96142.00;;;4.74;59.29
56600;BME280;51832;48.152;11.530;2023-01-28T15:40:56;96156.84;;;4.65;59.63
56600;BME280;51832;48.152;11.530;2023-01-28T15:45:59;96158.63;;;4.65;60.29
56600;BME280;51832;48.152;11.530;2023-01-28T15:51:19;96163.06;;;4.56;60.85
56600;BME280;51832;48.152;11.530;2023-01-28T15:56:25;96172.56;;;4.49;61.00
56600;BME280;51832;48.152;11.530;2023-01-28T16:01:26;96164.06;;;4.55;61.55
56600;BME280;51832;48.152;11.530;2023-01-28T16:06:33;96175.28;;;4.56;62.00
56600;BME280;51832;48.152;11.530;2023-01-28T16:11:36;96173.69;;;4.47;62.50
56600;BME280;51832;48.152;11.530;2023-01-28T16:16:45;96178.22;;;4.53;62.17
56600;BME280;51832;48.152;11.530;2023-01-28T16:21:47;96176.00;;;4.17;64.35
56600;BME280;51832;48.152;11.530;2023-01-28T16:27:24;96195.84;;;4.51;63.70
56600;BME280;51832;48.152;11.530;2023-01-28T16:32:45;96203.97;;;4.64;63.36
56600;BME280;51832;48.152;11.530;2023-01-28T16:37:47;96200.53;;;4.55;64.08
56600;BME280;51832;48.152;11.530;2023-01-28T16:42:48;96207.38;;;5.12;62.21
56600;BME280;51832;48.152;11.530;2023-01-28T16:47:50;96201.66;;;4.77;64.23
56600;BME280;51832;48.152;11.530;2023-01-28T16:52:52;96214.72;;;4.61;64.38
56600;BME280;51832;48.152;11.530;2023-01-28T16:57:55;96220.13;;;4.35;65.17
56600;BME280;51832;48.152;11.530;2023-01-28T17:02:56;96228.25;;;4.32;66.10
56600;BME280;51832;48.152;11.530;2023-01-28T17:07:57;96220.94;;;4.36;65.98
56600;BME280;51832;48.152;11.530;2023-01-28T17:12:58;96226.00;;;4.21;67.71
56600;BME280;51832;48.152;11.530;2023-01-28T17:17:59;96225.94;;;4.78;65.83
56600;BME280;51832;48.152;11.530;2023-01-28T17:22:59;96230.03;;;4.40;66.52
56600;BME280;51832;48.152;11.530;2023-01-28T17:28:00;96231.19;;;4.13;68.59
56600;BME280;51832;48.152;11.530;2023-01-28T17:33:00;96240.44;;;4.40;68.22
56600;BME280;51832;48.152;11.530;2023-01-28T17:38:02;96244.03;;;4.14;70.05
56600;BME280;51832;48.152;11.530;2023-01-28T17:43:04;96251.69;;;4.56;68.25
56600;BME280;51832;48.152;11.530;2023-01-28T17:48:04;96244.34;;;4.60;68.36
56600;BME280;51832;48.152;11.530;2023-01-28T17:53:06;96243.34;;;4.69;68.35
56600;BME280;51832;48.152;11.530;2023-01-28T17:58:07;96250.81;;;4.88;67.41
56600;BME280;51832;48.152;11.530;2023-01-28T18:03:11;96256.69;;;4.82;67.76
56600;BME280;51832;48.152;11.530;2023-01-28T18:08:11;96241.28;;;4.40;69.29
56600;BME280;51832;48.152;11.530;2023-01-28T18:13:12;96249.91;;;4.49;68.94
56600;BME280;51832;48.152;11.530;2023-01-28T18:18:12;96257.38;;;4.68;68.93
56600;BME280;51832;48.152;11.530;2023-01-28T18:23:13;96269.75;;;4.58;69.56
56600;BME280;51832;48.152;11.530;2023-01-28T18:28:14;96268.13;;;4.73;69.20
56600;BME280;51832;48.152;11.530;2023-01-28T18:33:14;96273.84;;;4.44;69.51
56600;BME280;51832;48.152;11.530;2023-01-28T18:38:15;96270.75;;;4.24;70.01
56600;BME280;51832;48.152;11.530;2023-01-28T18:43:17;96264.38;;;4.76;68.89
56600;BME280;51832;48.152;11.530;2023-01-28T18:48:18;96273.50;;;4.55;69.26
56600;BME280;51832;48.152;11.530;2023-01-28T18:53:22;96268.16;;;4.33;70.12
56600;BME280;51832;48.152;11.530;2023-01-28T18:58:25;96278.38;;;4.91;68.12
56600;BME280;51832;48.152;11.530;2023-01-28T19:03:26;96277.88;;;4.79;67.59
56600;BME280;51832;48.152;11.530;2023-01-28T19:08:26;96278.06;;;4.53;68.57
56600;BME280;51832;48.152;11.530;2023-01-28T19:13:27;96276.22;;;4.94;66.35
56600;BME280;51832;48.152;11.530;2023-01-28T19:18:28;96266.25;;;5.06;67.91
56600;BME280;51832;48.152;11.530;2023-01-28T19:23:29;96264.81;;;5.04;66.32
56600;BME280;51832;48.152;11.530;2023-01-28T19:28:31;96271.69;;;5.35;65.77
56600;BME280;51832;48.152;11.530;2023-01-28T19:33:32;96270.69;;;5.06;65.67
56600;BME280;51832;48.152;11.530;2023-01-28T19:38:32;96267.13;;;4.90;65.85
56600;BME280;51832;48.152;11.530;2023-01-28T19:43:34;96271.66;;;5.05;65.58
56600;BME280;51832;48.152;11.530;2023-01-28T19:48:34;96272.75;;;5.18;65.65
56600;BME280;51832;48.152;11.530;2023-01-28T19:53:36;96275.91;;;4.81;66.65
56600;BME280;51832;48.152;11.530;2023-01-28T19:58:39;96275.91;;;4.97;66.33
56600;BME280;51832;48.152;11.530;2023-01-28T20:03:40;96269.78;;;5.21;66.20
56600;BME280;51832;48.152;11.530;2023-01-28T20:08:41;96275.66;;;5.31;66.07
56600;BME280;51832;48.152;11.530;2023-01-28T20:13:44;96266.56;;;5.19;66.01
56600;BME280;51832;48.152;11.530;2023-01-28T20:18:53;96277.63;;;5.21;65.48
56600;BME280;51832;48.152;11.530;2023-01-28T20:23:56;96278.53;;;5.45;64.31
56600;BME280;51832;48.152;11.530;2023-01-28T20:28:59;96280.59;;;5.49;64.87
56600;BME280;51832;48.152;11.530;2023-01-28T20:34:00;96285.88;;;5.41;64.50
56600;BME280;51832;48.152;11.530;2023-01-28T20:39:01;96286.47;;;5.51;64.81
56600;BME280;51832;48.152;11.530;2023-01-28T20:44:01;96290.06;;;5.50;65.02
56600;BME280;51832;48.152;11.530;2023-01-28T20:49:02;96290.13;;;5.34;65.19
56600;BME280;51832;48.152;11.530;2023-01-28T20:54:05;96294.63;;;4.93;66.85
56600;BME280;51832;48.152;11.530;2023-01-28T20:59:06;96290.84;;;5.12;66.31
56600;BME280;51832;48.152;11.530;2023-01-28T21:04:07;96304.88;;;5.19;65.95
56600;BME280;51832;48.152;11.530;2023-01-28T21:09:08;96300.03;;;4.91;66.62
56600;BME280;51832;48.152;11.530;2023-01-28T21:14:09;96312.59;;;4.55;68.12
56600;BME280;51832;48.152;11.530;2023-01-28T21:19:11;96309.00;;;4.24;68.96
56600;BME280;51832;48.152;11.530;2023-01-28T21:24:12;96312.78;;;4.62;68.03
56600;BME280;51832;48.152;11.530;2023-01-28T21:29:12;96308.22;;;4.48;67.54
56600;BME280;51832;48.152;11.530;2023-01-28T21:34:13;96305.75;;;4.22;68.76
56600;BME280;51832;48.152;11.530;2023-01-28T21:39:15;96317.47;;;4.26;68.47
56600;BME280;51832;48.152;11.530;2023-01-28T21:44:15;96322.50;;;4.03;69.67
56600;BME280;51832;48.152;11.530;2023-01-28T21:49:15;96321.66;;;3.95;70.36
56600;BME280;51832;48.152;11.530;2023-01-28T21:54:19;96329.53;;;4.19;70.22
56600;BME280;51832;48.152;11.530;2023-01-28T21:59:20;96332.16;;;4.68;68.84
56600;BME280;51832;48.152;11.530;2023-01-28T22:04:36;96334.25;;;4.80;68.11
56600;BME280;51832;48.152;11.530;2023-01-28T22:09:38;96319.44;;;4.81;67.72
56600;BME280;51832;48.152;11.530;2023-01-28T22:14:39;96328.25;;;4.72;69.14
56600;BME280;51832;48.152;11.530;2023-01-28T22:19:43;96323.50;;;4.43;69.49
56600;BME280;51832;48.152;11.530;2023-01-28T22:24:47;96331.66;;;4.40;69.85
56600;BME280;51832;48.152;11.530;2023-01-28T22:29:47;96337.53;;;4.74;67.94
56600;BME280;51832;48.152;11.530;2023-01-28T22:34:47;96334.56;;;5.02;67.84
56600;BME280;51832;48.152;11.530;2023-01-28T22:39:48;96325.13;;;4.84;67.70
56600;BME280;51832;48.152;11.530;2023-01-28T22:44:48;96307.56;;;4.78;68.40
56600;BME280;51832;48.152;11.530;2023-01-28T22:49:49;96315.69;;;4.35;69.25
56600;BME280;51832;48.152;11.530;2023-01-28T22:54:49;96310.81;;;4.40;68.17
56600;BME280;51832;48.152;11.530;2023-01-28T22:59:50;96308.69;;;4.43;68.96
56600;BME280;51832;48.152;11.530;2023-01-28T23:04:51;96310.47;;;4.67;68.68
56600;BME280;51832;48.152;11.530;2023-01-28T23:09:51;96316.34;;;4.77;67.98
56600;BME280;51832;48.152;11.530;2023-01-28T23:14:52;96315.69;;;4.67;69.03
56600;BME280;51832;48.152;11.530;2023-01-28T23:20:11;96316.03;;;4.48;69.37
56600;BME280;51832;48.152;11.530;2023-01-28T23:25:29;96319.44;;;4.40;69.95
56600;BME280;51832;48.152;11.530;2023-01-28T23:30:30;96317.97;;;4.29;69.94
56600;BME280;51832;48.152;11.530;2023-01-28T23:35:30;96316.47;;;4.03;71.63
56600;BME280;51832;48.152;11.530;2023-01-28T23:40:31;96314.16;;;3.91;71.24
56600;BME280;51832;48.152;11.530;2023-01-28T23:45:32;96310.53;;;3.68;73.14
56600;BME280;51832;48.152;11.530;2023-01-28T23:50:32;96313.09;;;4.35;71.02
56600;BME280;51832;48.152;11.530;2023-01-28T23:55:33;96315.91;;;3.83;71.38
